Time;durP1;ratioP1;P1;durP2;ratioP2;P2;SDS_P1;SDS_P2;PMS_P1;PMS_P2;Temp;Humidity;BMP_temperature;BMP_pressure;BME280_temperature;BME280_humidity;BME280_pressure;Samples;Min_cycle;Max_cycle;Signal;HPM_P1;HPM_P2
2022/07/29 00:00:04;;;;;;;1.83;1.33;;;14.70;99.90;;;;;;5061321;28;20021;-92
2022/07/29 00:02:31;;;;;;;2.50;1.50;;;14.70;99.90;;;;;;5045813;28;20045;-92
2022/07/29 00:04:57;;;;;;;3.78;1.58;;;14.70;99.90;;;;;;5044852;28;20072;-92
2022/07/29 00:07:24;;;;;;;2.40;1.45;;;14.80;99.90;;;;;;5048839;28;20461;-93
2022/07/29 00:09:49;;;;;;;2.05;1.50;;;14.80;99.90;;;;;;5047528;28;20075;-91
2022/07/29 00:12:15;;;;;;;7.20;1.80;;;14.70;99.90;;;;;;5043360;28;20156;-92
2022/07/29 00:14:41;;;;;;;2.13;1.58;;;14.70;99.90;;;;;;5007424;28;20044;-92
2022/07/29 00:17:06;;;;;;;3.83;1.80;;;14.70;99.90;;;;;;5015884;28;20037;-91
2022/07/29 00:19:33;;;;;;;2.15;1.48;;;14.70;99.90;;;;;;5013253;28;20056;-91
2022/07/29 00:22:00;;;;;;;2.55;1.50;;;14.70;99.90;;;;;;5013890;28;20044;-92
2022/07/29 00:24:25;;;;;;;2.20;1.60;;;14.80;99.90;;;;;;5042725;28;20100;-91
2022/07/29 00:26:51;;;;;;;4.30;1.83;;;14.80;99.90;;;;;;5019374;28;20509;-92
2022/07/29 00:29:18;;;;;;;4.45;1.63;;;14.70;99.90;;;;;;5046897;28;20176;-91
2022/07/29 00:31:43;;;;;;;8.32;1.80;;;14.70;99.90;;;;;;5044582;28;20352;-90
2022/07/29 00:35:43;;;;;;;4.70;2.03;;;14.70;99.90;;;;;;5014183;28;20033;-90
2022/07/29 00:36:55;;;;;;;8.32;2.22;;;14.80;99.90;;;;;;5060924;28;20033;-92
2022/07/29 00:39:21;;;;;;;3.85;1.92;;;14.80;99.90;;;;;;5046491;28;20059;-91
2022/07/29 00:41:46;;;;;;;4.68;2.00;;;14.80;99.90;;;;;;5044256;28;20572;-91
2022/07/29 00:44:12;;;;;;;5.63;2.22;;;14.80;99.90;;;;;;5019517;28;20047;-91
2022/07/29 00:46:38;;;;;;;4.07;1.70;;;14.80;99.90;;;;;;5052824;28;20028;-91
2022/07/29 00:49:07;;;;;;;4.13;2.00;;;14.80;99.90;;;;;;5054172;28;20036;-92
2022/07/29 00:51:35;;;;;;;2.63;2.00;;;14.80;99.90;;;;;;5033096;28;20056;-92
2022/07/29 00:54:01;;;;;;;3.70;2.10;;;14.80;99.90;;;;;;5036648;28;20032;-91
2022/07/29 00:56:29;;;;;;;3.50;1.90;;;14.90;99.90;;;;;;5060935;28;20538;-92
2022/07/29 00:58:57;;;;;;;4.57;2.20;;;14.90;99.90;;;;;;5063144;28;20028;-91
2022/07/29 01:01:23;;;;;;;3.65;2.00;;;14.90;99.90;;;;;;5038484;28;20093;-91
2022/07/29 01:03:49;;;;;;;5.72;2.10;;;14.90;99.90;;;;;;5064590;28;20032;-91
2022/07/29 01:06:17;;;;;;;3.83;2.00;;;14.90;99.90;;;;;;5047629;28;20189;-91
2022/07/29 01:08:45;;;;;;;4.03;2.20;;;14.90;99.90;;;;;;5032878;28;20043;-92
2022/07/29 01:11:11;;;;;;;3.53;2.22;;;14.90;99.90;;;;;;5034344;28;20051;-91
2022/07/29 01:13:37;;;;;;;5.32;2.10;;;14.90;99.90;;;;;;5032923;28;20144;-91
2022/07/29 01:16:24;;;;;;;7.53;2.08;;;14.90;99.90;;;;;;5048637;28;20540;-90
2022/07/29 01:18:56;;;;;;;4.78;1.95;;;14.90;99.90;;;;;;5081539;28;20615;-91
2022/07/29 01:21:40;;;;;;;4.35;2.30;;;14.90;99.90;;;;;;5048158;28;20051;-90
2022/07/29 01:24:44;;;;;;;4.03;2.15;;;14.90;99.90;;;;;;5059222;28;20037;-91
2022/07/29 01:27:19;;;;;;;4.53;2.30;;;14.90;99.90;;;;;;5032402;28;20045;-90
2022/07/29 01:29:51;;;;;;;6.43;2.22;;;14.80;99.90;;;;;;5051048;28;20032;-90
2022/07/29 01:32:25;;;;;;;4.20;2.20;;;14.90;99.90;;;;;;5038108;28;20066;-91
2022/07/29 01:34:57;;;;;;;3.50;2.15;;;14.90;99.90;;;;;;5037695;28;20129;-91
2022/07/29 01:37:41;;;;;;;4.13;2.15;;;14.80;99.90;;;;;;5076604;28;20121;-92
2022/07/29 01:40:19;;;;;;;4.28;2.53;;;14.80;99.90;;;;;;5070973;28;20040;-91
2022/07/29 01:42:50;;;;;;;4.43;2.40;;;14.80;99.90;;;;;;5053142;28;20174;-91
2022/07/29 01:45:21;;;;;;;3.05;2.05;;;14.80;99.90;;;;;;5039548;28;20138;-91
2022/07/29 01:47:51;;;;;;;4.97;2.20;;;14.80;99.90;;;;;;5034261;28;20051;-91
2022/07/29 01:50:19;;;;;;;5.45;2.90;;;14.90;99.90;;;;;;5054256;28;20502;-90
2022/07/29 01:52:54;;;;;;;2.88;2.00;;;14.80;99.90;;;;;;5036215;28;20040;-91
2022/07/29 01:55:24;;;;;;;4.18;2.17;;;14.80;99.90;;;;;;5064581;28;20086;-90
2022/07/29 01:57:51;;;;;;;3.50;1.95;;;14.90;99.90;;;;;;5081327;28;20033;-92
2022/07/29 02:00:18;;;;;;;3.85;1.73;;;14.90;99.90;;;;;;5043209;28;20493;-91
2022/07/29 02:02:47;;;;;;;4.85;1.90;;;14.90;99.90;;;;;;5084125;28;20081;-90
2022/07/29 02:05:17;;;;;;;4.63;2.00;;;14.90;99.90;;;;;;5038414;28;20046;-91
2022/07/29 02:07:44;;;;;;;4.40;2.00;;;14.90;99.90;;;;;;5040736;28;20605;-91
2022/07/29 02:10:12;;;;;;;3.88;2.20;;;14.90;99.90;;;;;;5037413;28;20422;-90
2022/07/29 02:12:40;;;;;;;4.97;2.20;;;15.00;99.90;;;;;;5074916;28;20036;-90
2022/07/29 02:15:07;;;;;;;5.88;1.95;;;14.90;99.90;;;;;;5043219;28;20082;-91
2022/07/29 02:17:43;;;;;;;3.60;1.77;;;14.90;99.90;;;;;;5033448;28;20035;-91
2022/07/29 02:20:09;;;;;;;3.33;1.65;;;14.90;99.90;;;;;;5045952;28;20052;-90
2022/07/29 02:22:38;;;;;;;3.50;1.65;;;14.90;99.90;;;;;;5056058;28;20380;-93
2022/07/29 02:25:06;;;;;;;4.15;1.88;;;15.00;99.90;;;;;;5055546;28;20435;-91
2022/07/29 02:27:34;;;;;;;5.68;1.83;;;15.00;99.90;;;;;;5038813;28;20385;-90
2022/07/29 02:30:02;;;;;;;4.45;2.35;;;14.90;99.90;;;;;;5041476;28;20032;-91
2022/07/29 02:32:32;;;;;;;3.50;1.75;;;14.90;99.90;;;;;;5055439;28;20044;-90
2022/07/29 02:34:59;;;;;;;4.70;1.80;;;15.00;99.90;;;;;;5036288;28;20032;-90
2022/07/29 02:37:26;;;;;;;3.03;2.13;;;15.00;99.90;;;;;;5049295;28;20047;-90
2022/07/29 02:39:54;;;;;;;3.47;1.73;;;15.00;99.90;;;;;;5062236;28;20024;-91
2022/07/29 02:42:23;;;;;;;4.47;1.55;;;15.00;99.90;;;;;;5056388;28;20340;-89
2022/07/29 02:44:49;;;;;;;4.93;1.95;;;15.00;99.90;;;;;;5039360;28;20523;-91
2022/07/29 02:47:26;;;;;;;3.15;1.63;;;14.90;99.90;;;;;;5064373;28;20060;-91
2022/07/29 02:50:22;;;;;;;6.70;1.80;;;14.90;99.90;;;;;;5063688;28;20080;-91
2022/07/29 02:52:54;;;;;;;;;;;14.90;99.90;;;;;;5036214;28;20063;-91
2022/07/29 02:55:24;;;;;;;3.17;1.80;;;14.90;99.90;;;;;;5034281;28;19916;-90
2022/07/29 02:57:59;;;;;;;4.07;1.80;;;14.90;99.90;;;;;;5053719;28;20497;-90
2022/07/29 03:00:31;;;;;;;6.55;1.98;;;14.90;99.90;;;;;;5037176;28;20032;-92
2022/07/29 03:03:00;;;;;;;2.70;1.67;;;14.90;99.90;;;;;;5036985;28;20044;-90
2022/07/29 03:05:27;;;;;;;5.13;1.90;;;14.80;99.90;;;;;;5048031;28;20044;-91
2022/07/29 03:08:03;;;;;;;4.38;1.70;;;14.80;99.90;;;;;;5047525;28;20041;-90
2022/07/29 03:10:30;;;;;;;3.22;1.88;;;14.80;99.90;;;;;;5033363;28;20532;-91
2022/07/29 03:12:57;;;;;;;4.05;1.90;;;14.80;99.90;;;;;;5051366;28;20040;-90
2022/07/29 03:15:24;;;;;;;5.05;2.15;;;14.80;99.90;;;;;;5055658;28;20098;-90
2022/07/29 03:17:51;;;;;;;3.22;1.80;;;14.80;99.90;;;;;;5063170;28;20043;-90
2022/07/29 03:20:17;;;;;;;6.10;2.10;;;14.80;99.90;;;;;;5036794;28;20288;-90
2022/07/29 03:22:46;;;;;;;5.18;1.95;;;14.80;99.90;;;;;;5049899;28;20053;-90
2022/07/29 03:25:19;;;;;;;2.63;1.60;;;14.80;99.90;;;;;;5037831;28;20044;-90
2022/07/29 03:27:46;;;;;;;3.65;2.00;;;14.80;99.90;;;;;;5031251;28;20044;-91
2022/07/29 03:30:13;;;;;;;3.35;1.85;;;14.80;99.90;;;;;;5063404;28;20113;-90
2022/07/29 03:32:39;;;;;;;6.13;1.90;;;14.80;99.90;;;;;;5034052;28;20029;-90
2022/07/29 03:35:06;;;;;;;5.07;1.80;;;14.80;99.90;;;;;;5061161;28;20217;-91
2022/07/29 03:37:33;;;;;;;5.03;1.90;;;14.80;99.90;;;;;;5031095;28;20131;-90
2022/07/29 03:40:00;;;;;;;3.10;1.80;;;14.80;99.90;;;;;;5042127;28;20046;-91
2022/07/29 03:42:30;;;;;;;3.70;1.90;;;14.80;99.90;;;;;;5061068;28;20040;-89
2022/07/29 03:44:58;;;;;;;3.75;1.75;;;14.80;99.90;;;;;;5067170;28;20053;-90
2022/07/29 03:47:28;;;;;;;6.50;1.90;;;14.80;99.90;;;;;;5035224;28;20123;-90
2022/07/29 03:50:08;;;;;;;3.88;1.90;;;14.80;99.90;;;;;;5063150;28;20036;-91
2022/07/29 03:52:35;;;;;;;3.35;1.70;;;14.80;99.90;;;;;;5036465;28;20040;-91
2022/07/29 03:55:02;;;;;;;4.55;1.80;;;14.80;99.90;;;;;;5038484;28;20298;-91
2022/07/29 03:57:30;;;;;;;3.75;1.90;;;14.80;99.90;;;;;;5032610;28;20479;-91
2022/07/29 03:59:57;;;;;;;4.03;1.92;;;14.80;99.90;;;;;;5037238;28;20097;-91
2022/07/29 04:02:25;;;;;;;2.88;1.63;;;14.80;99.90;;;;;;5062033;28;20051;-92
2022/07/29 04:04:51;;;;;;;5.63;1.98;;;14.80;99.90;;;;;;5032010;28;20322;-89
2022/07/29 04:07:17;;;;;;;4.57;2.10;;;14.80;99.90;;;;;;5060064;28;20044;-90
2022/07/29 04:09:43;;;;;;;3.72;2.05;;;14.80;99.90;;;;;;5066400;28;20040;-91
2022/07/29 04:12:09;;;;;;;5.38;2.35;;;14.90;99.90;;;;;;5063495;28;20332;-91
2022/07/29 04:14:36;;;;;;;4.57;2.00;;;14.90;99.90;;;;;;5035070;28;20042;-91
2022/07/29 04:17:03;;;;;;;4.53;2.33;;;14.80;99.90;;;;;;5051457;28;20029;-91
2022/07/29 04:19:29;;;;;;;5.20;2.13;;;14.80;99.90;;;;;;5029439;28;20060;-89
2022/07/29 04:21:56;;;;;;;4.70;1.90;;;14.90;99.90;;;;;;5043378;28;20032;-89
2022/07/29 04:24:22;;;;;;;4.00;2.15;;;14.90;99.90;;;;;;5038171;28;20498;-91
2022/07/29 04:26:48;;;;;;;3.22;2.20;;;14.90;99.90;;;;;;5061348;28;20547;-90
2022/07/29 04:29:14;;;;;;;4.90;2.25;;;15.00;99.90;;;;;;5064561;28;20081;-91
2022/07/29 04:31:41;;;;;;;3.92;2.05;;;15.00;99.90;;;;;;5035015;28;20412;-91
2022/07/29 04:34:07;;;;;;;3.47;1.80;;;15.00;99.90;;;;;;5037995;28;20357;-90
2022/07/29 04:36:33;;;;;;;4.97;2.22;;;15.10;99.90;;;;;;5034522;28;20043;-91
2022/07/29 04:38:59;;;;;;;5.35;2.40;;;15.10;99.90;;;;;;5061210;28;20024;-90
2022/07/29 04:41:24;;;;;;;4.70;2.20;;;15.10;99.90;;;;;;5060929;28;20024;-90
2022/07/29 04:43:50;;;;;;;4.15;2.00;;;15.10;99.90;;;;;;5054740;28;20040;-89
2022/07/29 04:46:16;;;;;;;5.25;2.20;;;15.10;99.90;;;;;;5053891;28;20043;-91
2022/07/29 04:48:41;;;;;;;6.10;2.00;;;15.20;99.90;;;;;;5060541;28;20384;-90
2022/07/29 04:51:10;;;;;;;4.70;2.15;;;15.20;99.90;;;;;;5060217;28;20044;-89
2022/07/29 04:53:36;;;;;;;4.00;1.90;;;15.20;99.90;;;;;;5058185;28;20123;-91
2022/07/29 04:56:02;;;;;;;3.58;2.10;;;15.20;99.90;;;;;;5030754;28;20131;-90
2022/07/29 04:58:28;;;;;;;5.57;2.40;;;15.20;99.90;;;;;;5043152;28;20139;-89
2022/07/29 05:00:53;;;;;;;5.75;1.80;;;15.30;99.90;;;;;;5061039;28;20042;-89
2022/07/29 05:03:19;;;;;;;5.63;2.50;;;15.30;99.90;;;;;;5032114;28;20036;-90
2022/07/29 05:05:45;;;;;;;6.53;2.00;;;15.40;99.90;;;;;;5033339;28;20073;-91
2022/07/29 05:08:11;;;;;;;4.68;2.22;;;15.40;99.90;;;;;;5055400;28;20503;-90
2022/07/29 05:10:37;;;;;;;11.23;2.13;;;15.40;99.90;;;;;;5051442;28;20063;-89
2022/07/29 05:13:07;;;;;;;4.05;2.08;;;15.50;99.90;;;;;;5048642;28;20127;-89
2022/07/29 05:15:36;;;;;;;6.75;2.10;;;15.60;97.70;;;;;;5051345;28;20055;-90
2022/07/29 05:18:03;;;;;;;3.92;2.20;;;15.60;99.90;;;;;;5049644;28;20033;-90
2022/07/29 05:20:30;;;;;;;3.72;1.92;;;15.60;88.50;;;;;;5054329;28;20038;-90
2022/07/29 05:23:00;;;;;;;3.47;1.85;;;15.70;70.00;;;;;;5053104;28;20040;-91
2022/07/29 05:25:27;;;;;;;5.30;2.00;;;15.70;72.00;;;;;;5056863;28;20463;-89
2022/07/29 05:27:54;;;;;;;4.30;1.77;;;15.80;53.00;;;;;;5032414;28;20140;-89
2022/07/29 05:30:20;;;;;;;3.03;1.70;;;15.80;35.20;;;;;;5078107;28;20108;-90
2022/07/29 05:32:46;;;;;;;3.63;1.92;;;15.90;63.80;;;;;;5060710;28;20067;-89
2022/07/29 05:35:13;;;;;;;4.10;2.05;;;15.80;65.10;;;;;;5059675;28;20040;-91
2022/07/29 05:37:39;;;;;;;6.07;2.05;;;15.90;87.30;;;;;;5050722;28;20286;-89
2022/07/29 05:40:06;;;;;;;2.60;1.90;;;15.90;20.70;;;;;;5031574;28;20128;-90
2022/07/29 05:42:31;;;;;;;6.07;2.30;;;16.00;17.20;;;;;;5039090;28;20140;-89
2022/07/29 05:44:57;;;;;;;5.32;2.00;;;16.00;6.80;;;;;;5062122;28;20559;-90
2022/07/29 05:47:24;;;;;;;4.47;1.90;;;16.00;45.80;;;;;;5075769;28;20049;-90
2022/07/29 05:49:50;;;;;;;6.15;2.40;;;16.00;5.40;;;;;;5037017;28;20127;-90
2022/07/29 05:52:19;;;;;;;3.80;1.92;;;16.10;13.30;;;;;;5066191;28;20115;-90
2022/07/29 05:54:45;;;;;;;4.43;1.98;;;16.10;18.40;;;;;;5067885;28;20036;-91
2022/07/29 05:57:22;;;;;;;4.35;1.90;;;16.10;1.00;;;;;;5038269;28;20035;-92
2022/07/29 05:59:48;;;;;;;3.42;2.10;;;16.20;1.00;;;;;;5051208;28;20029;-90
2022/07/29 06:02:15;;;;;;;7.20;2.20;;;16.30;1.00;;;;;;5078528;28;20488;-90
2022/07/29 06:04:40;;;;;;;6.28;2.28;;;16.30;1.00;;;;;;5028391;28;20123;-91
2022/07/29 06:07:06;;;;;;;3.65;1.90;;;16.40;2.30;;;;;;5059891;28;20163;-91
2022/07/29 06:09:33;;;;;;;5.90;2.40;;;16.40;1.00;;;;;;5050377;28;20423;-91
2022/07/29 06:11:59;;;;;;;3.60;2.00;;;16.40;1.00;;;;;;5032568;28;20036;-89
2022/07/29 06:14:26;;;;;;;3.38;1.73;;;16.50;1.00;;;;;;5069572;28;20275;-89
2022/07/29 06:16:52;;;;;;;3.15;2.03;;;16.50;1.00;;;;;;5049853;28;20043;-89
2022/07/29 06:19:18;;;;;;;3.40;2.20;;;16.60;1.00;;;;;;5048292;28;20043;-90
2022/07/29 06:21:45;;;;;;;4.00;2.13;;;16.70;1.00;;;;;;5036307;28;20479;-89
2022/07/29 06:24:12;;;;;;;6.18;2.17;;;16.70;1.00;;;;;;5061863;28;20032;-90
2022/07/29 06:26:41;;;;;;;4.55;2.00;;;16.80;1.00;;;;;;5039134;28;20048;-89
2022/07/29 06:29:08;;;;;;;3.70;1.80;;;16.90;1.00;;;;;;5062377;28;20037;-90
2022/07/29 06:31:34;;;;;;;3.75;2.00;;;17.00;1.00;;;;;;5052262;28;20044;-89
2022/07/29 06:34:00;;;;;;;5.75;2.00;;;17.00;1.00;;;;;;5037238;28;20040;-88
2022/07/29 06:36:26;;;;;;;7.72;2.47;;;17.10;1.00;;;;;;5054662;28;20046;-89
2022/07/29 06:38:52;;;;;;;5.07;2.13;;;17.20;1.00;;;;;;5072135;28;20042;-89
2022/07/29 06:41:18;;;;;;;4.53;2.17;;;17.30;1.00;;;;;;5077769;28;20040;-89
2022/07/29 06:43:45;;;;;;;3.67;2.20;;;17.50;1.00;;;;;;5065335;28;20350;-89
2022/07/29 06:46:14;;;;;;;3.92;2.92;;;17.30;1.00;;;;;;5032713;28;20578;-90
2022/07/29 06:48:41;;;;;;;6.20;2.00;;;17.50;99.90;;;;;;5032610;28;20049;-89
2022/07/29 06:51:11;;;;;;;4.03;2.00;;;17.50;1.00;;;;;;5059599;28;20045;-88
2022/07/29 06:53:37;;;;;;;6.25;2.63;;;17.50;99.90;;;;;;5058190;28;20037;-88
2022/07/29 06:56:04;;;;;;;3.40;2.10;;;17.50;1.00;;;;;;5072202;28;20037;-89
2022/07/29 06:58:30;;;;;;;4.82;2.10;;;17.50;99.90;;;;;;5030335;28;20097;-89
2022/07/29 07:00:57;;;;;;;4.75;2.28;;;17.60;99.90;;;;;;5062942;28;20132;-89
2022/07/29 07:03:24;;;;;;;4.93;2.58;;;17.50;99.90;;;;;;5039280;28;20138;-91
2022/07/29 07:05:51;;;;;;;5.18;2.25;;;17.60;99.90;;;;;;5063436;28;20098;-89
2022/07/29 07:08:17;;;;;;;5.45;2.22;;;17.70;1.00;;;;;;5062305;28;20044;-89
2022/07/29 07:10:43;;;;;;;5.57;2.25;;;17.80;99.90;;;;;;5034860;28;20044;-89
2022/07/29 07:13:09;;;;;;;6.63;2.25;;;17.80;99.90;;;;;;5030456;28;20550;-90
2022/07/29 07:15:36;;;;;;;6.10;2.20;;;18.00;99.90;;;;;;5037565;28;20203;-90
2022/07/29 07:18:01;;;;;;;6.75;2.20;;;18.00;99.90;;;;;;5035697;28;20045;-89
2022/07/29 07:20:30;;;;;;;4.18;2.20;;;18.20;99.90;;;;;;5061080;28;20047;-89
2022/07/29 07:22:55;;;;;;;4.85;2.00;;;18.30;99.90;;;;;;5059977;28;20307;-88
2022/07/29 07:25:21;;;;;;;5.53;2.30;;;18.30;99.90;;;;;;5038751;28;20367;-89
2022/07/29 07:27:47;;;;;;;5.63;1.92;;;18.20;99.90;;;;;;5029340;28;20047;-89
2022/07/29 07:30:13;;;;;;;4.95;2.25;;;18.30;99.90;;;;;;5051726;28;20072;-90
2022/07/29 07:32:39;;;;;;;4.60;1.92;;;18.30;99.90;;;;;;5066678;28;20045;-89
2022/07/29 07:35:08;;;;;;;9.15;2.75;;;18.40;99.90;;;;;;5032214;28;20488;-89
2022/07/29 07:37:34;;;;;;;5.90;2.50;;;18.50;99.90;;;;;;5037603;28;20395;-89
2022/07/29 07:40:00;;;;;;;3.33;2.30;;;18.50;99.90;;;;;;5037947;28;20294;-90
2022/07/29 07:42:26;;;;;;;4.32;2.30;;;18.50;99.90;;;;;;5034288;28;20051;-89
2022/07/29 07:44:52;;;;;;;5.30;2.20;;;18.40;99.90;;;;;;5045170;28;20057;-89
2022/07/29 07:47:19;;;;;;;6.55;2.60;;;18.50;99.90;;;;;;5038209;28;20071;-89
2022/07/29 07:49:51;;;;;;;4.57;2.00;;;18.40;99.90;;;;;;5079911;28;20561;-89
2022/07/29 07:52:19;;;;;;;7.13;2.65;;;18.50;99.90;;;;;;5036416;28;20044;-89
2022/07/29 07:54:44;;;;;;;6.95;2.30;;;18.50;99.90;;;;;;5053467;28;20033;-88
2022/07/29 07:57:12;;;;;;;3.88;2.00;;;18.50;99.90;;;;;;5032166;28;20136;-89
2022/07/29 07:59:38;;;;;;;3.60;1.95;;;18.30;99.90;;;;;;5077009;28;20399;-89
2022/07/29 08:02:07;;;;;;;3.42;2.33;;;18.70;99.90;;;;;;5061215;28;20056;-89
2022/07/29 08:04:33;;;;;;;3.42;2.10;;;18.80;99.90;;;;;;5034985;28;20066;-89
2022/07/29 08:06:59;;;;;;;4.10;2.30;;;18.70;99.90;;;;;;5035745;28;20044;-88
2022/07/29 08:09:26;;;;;;;5.15;2.15;;;18.80;99.90;;;;;;5053666;28;20062;-89
2022/07/29 08:11:53;;;;;;;3.75;2.20;;;18.80;99.90;;;;;;5049943;28;20043;-89
2022/07/29 08:14:19;;;;;;;5.45;2.20;;;19.10;99.90;;;;;;5038281;28;20044;-89
2022/07/29 08:16:44;;;;;;;6.22;2.40;;;19.30;99.90;;;;;;5034723;28;20037;-89
2022/07/29 08:19:10;;;;;;;6.53;2.30;;;19.10;99.90;;;;;;5083117;28;20103;-89
2022/07/29 08:21:36;;;;;;;29.20;4.18;;;19.30;99.90;;;;;;5026701;28;20037;-89
2022/07/29 08:26:46;;;;;;;5.28;2.38;;;19.60;99.90;;;;;;5080679;28;20120;-89
2022/07/29 08:29:12;;;;;;;3.53;2.20;;;19.60;99.90;;;;;;5029170;28;20198;-89
2022/07/29 08:31:39;;;;;;;4.70;2.42;;;19.60;99.90;;;;;;5047609;28;20047;-90
2022/07/29 08:34:06;;;;;;;3.75;2.13;;;19.70;99.90;;;;;;5031123;28;20055;-89
2022/07/29 08:36:33;;;;;;;3.95;2.05;;;19.90;99.90;;;;;;5066531;28;20385;-90
2022/07/29 08:38:59;;;;;;;5.45;2.40;;;19.90;99.90;;;;;;5063145;28;20036;-89
2022/07/29 08:41:26;;;;;;;5.18;2.42;;;19.80;99.90;;;;;;5062537;28;20037;-89
2022/07/29 08:43:52;;;;;;;5.50;2.40;;;19.70;99.90;;;;;;5051112;28;20067;-90
2022/07/29 08:46:19;;;;;;;5.03;2.53;;;19.80;99.90;;;;;;5029598;28;20040;-89
2022/07/29 08:48:44;;;;;;;4.75;2.50;;;19.70;99.90;;;;;;5061750;28;20082;-88
2022/07/29 08:51:16;;;;;;;5.82;2.53;;;19.80;99.90;;;;;;5049178;28;20090;-88
2022/07/29 08:53:48;;;;;;;4.05;2.60;;;19.40;99.90;;;;;;5033283;28;20508;-88
2022/07/29 08:56:18;;;;;;;4.63;2.28;;;19.70;99.90;;;;;;5020825;28;20036;-90
2022/07/29 08:58:47;;;;;;;4.38;2.47;;;20.10;99.90;;;;;;5035623;28;20511;-89
2022/07/29 09:01:21;;;;;;;6.82;2.40;;;20.40;99.90;;;;;;5085711;28;20384;-91
2022/07/29 09:03:46;;;;;;;5.88;2.40;;;20.50;99.90;;;;;;5034841;28;20484;-91
2022/07/29 09:06:19;;;;;;;6.93;2.53;;;20.20;99.90;;;;;;5055443;28;20044;-91
2022/07/29 09:08:45;;;;;;;6.65;2.38;;;19.90;99.90;;;;;;5037326;28;20032;-91
2022/07/29 09:11:12;;;;;;;5.43;2.28;;;20.50;99.90;;;;;;5037042;28;20060;-92
2022/07/29 09:13:38;;;;;;;12.25;3.00;;;20.50;99.90;;;;;;5049058;28;20503;-90
2022/07/29 09:16:04;;;;;;;4.60;2.47;;;20.70;99.90;;;;;;5039948;28;20047;-88
2022/07/29 09:18:38;;;;;;;7.75;2.70;;;20.50;99.90;;;;;;5037379;28;20452;-88
2022/07/29 09:24:12;;;;;;;6.63;2.40;;;20.50;99.90;;;;;;5048391;28;20048;-89
2022/07/29 09:26:45;;;;;;;4.22;2.53;;;20.60;99.90;;;;;;5071476;28;20102;-89
2022/07/29 09:29:16;;;;;;;6.60;2.65;;;19.90;99.90;;;;;;5053710;28;20510;-87
2022/07/29 09:31:44;;;;;;;5.90;2.58;;;20.40;99.90;;;;;;5050149;28;20047;-89
2022/07/29 09:34:12;;;;;;;5.88;3.03;;;20.40;99.90;;;;;;5067426;28;20482;-88
2022/07/29 09:36:44;;;;;;;5.07;2.40;;;20.70;99.90;;;;;;5074134;28;20112;-88
2022/07/29 09:39:10;;;;;;;9.00;2.63;;;20.70;99.90;;;;;;5035546;28;20047;-87
2022/07/29 09:41:52;;;;;;;5.35;2.60;;;20.60;99.90;;;;;;5078789;28;20048;-88
2022/07/29 09:44:18;;;;;;;4.60;2.50;;;20.60;99.90;;;;;;5067731;28;20076;-88
2022/07/29 09:47:05;;;;;;;7.05;2.55;;;20.50;99.90;;;;;;5033546;28;20036;-90
2022/07/29 09:49:36;;;;;;;7.43;2.65;;;20.50;99.90;;;;;;5051630;28;20043;-88
2022/07/29 09:52:06;;;;;;;6.32;2.40;;;21.10;99.90;;;;;;5055919;28;20523;-90
2022/07/29 09:54:38;;;;;;;6.85;2.38;;;21.20;99.90;;;;;;5071257;28;20076;-90
2022/07/29 09:57:28;;;;;;;7.57;2.78;;;21.30;99.90;;;;;;5062042;28;20257;-91
2022/07/29 10:00:09;;;;;;;6.18;2.58;;;21.10;99.90;;;;;;5051697;28;20037;-90
2022/07/29 10:02:36;;;;;;;3.92;2.40;;;21.10;99.90;;;;;;5042339;28;20125;-91
2022/07/29 10:05:15;;;;;;;5.13;2.40;;;21.30;99.90;;;;;;5081296;28;20360;-90
2022/07/29 10:07:48;;;;;;;7.43;3.08;;;21.10;99.90;;;;;;5057737;28;20037;-91
2022/07/29 10:10:28;;;;;;;20.45;7.95;;;21.00;99.90;;;;;;5056340;28;20048;-91
2022/07/29 10:12:57;;;;;;;9.63;3.08;;;21.00;99.90;;;;;;5049747;28;20036;-91
2022/07/29 10:15:28;;;;;;;4.50;2.60;;;20.80;99.90;;;;;;5044209;28;20089;-91
2022/07/29 10:17:55;;;;;;;6.18;2.75;;;20.90;99.90;;;;;;5064198;28;20098;-91
2022/07/29 10:20:22;;;;;;;4.80;2.40;;;20.70;99.90;;;;;;5063550;28;20209;-91
2022/07/29 10:22:49;;;;;;;6.28;2.72;;;21.10;99.90;;;;;;5066581;28;20051;-91
2022/07/29 10:25:19;;;;;;;8.15;3.40;;;20.70;99.90;;;;;;5036247;28;20044;-91
2022/07/29 10:27:46;;;;;;;6.18;2.80;;;20.60;99.90;;;;;;5066278;28;20133;-92
2022/07/29 10:30:14;;;;;;;6.57;2.97;;;20.40;99.90;;;;;;5037933;28;20048;-91
2022/07/29 10:32:52;;;;;;;6.55;2.88;;;20.70;99.90;;;;;;5027900;28;20070;-88
2022/07/29 10:35:30;;;;;;;6.10;2.67;;;21.00;99.90;;;;;;5058735;28;20123;-87
2022/07/29 10:38:11;;;;;;;12.55;3.30;;;21.40;99.90;;;;;;5058541;28;20041;-88
2022/07/29 10:43:29;;;;;;;7.45;3.22;;;21.70;99.90;;;;;;5046189;28;20037;-89
2022/07/29 10:46:00;;;;;;;5.13;2.72;;;21.70;99.90;;;;;;5032979;28;20664;-87
2022/07/29 10:48:26;;;;;;;3.75;2.25;;;21.70;99.90;;;;;;5076098;28;20552;-87
2022/07/29 10:51:03;;;;;;;4.22;2.45;;;21.80;99.90;;;;;;5032340;28;20119;-87
2022/07/29 10:53:52;;;;;;;6.30;2.58;;;21.70;99.90;;;;;;5031625;28;20101;-87
2022/07/29 10:56:28;;;;;;;4.35;2.40;;;21.80;99.90;;;;;;5032917;28;20032;-87
2022/07/29 10:59:19;;;;;;;6.40;2.70;;;21.70;99.90;;;;;;5061888;28;20044;-87
2022/07/29 11:01:55;;;;;;;4.85;2.53;;;21.90;99.90;;;;;;5048050;28;20040;-88
2022/07/29 11:04:45;;;;;;;5.03;2.55;;;22.10;99.90;;;;;;5062597;28;20480;-87
2022/07/29 11:07:12;;;;;;;5.30;2.58;;;22.10;99.90;;;;;;5042202;28;20044;-87
2022/07/29 11:09:38;;;;;;;4.57;2.60;;;22.50;99.90;;;;;;5028872;28;20047;-87
2022/07/29 11:12:23;;;;;;;5.78;2.60;;;22.70;99.90;;;;;;5068033;28;20032;-87
2022/07/29 11:14:58;;;;;;;5.45;2.63;;;23.00;99.90;;;;;;5065058;28;20040;-89
2022/07/29 11:17:25;;;;;;;7.55;3.30;;;22.80;99.90;;;;;;5038987;28;20036;-88
2022/07/29 11:19:51;;;;;;;5.55;2.78;;;22.70;99.90;;;;;;5063615;28;20041;-88
2022/07/29 11:22:34;;;;;;;7.30;2.72;;;23.00;99.90;;;;;;5045247;28;20048;-88
2022/07/29 11:25:19;;;;;;;6.18;2.90;;;23.30;99.90;;;;;;5043896;28;20192;-87
2022/07/29 11:27:45;;;;;;;6.25;2.83;;;22.90;99.90;;;;;;5053110;28;20507;-88
2022/07/29 11:30:13;;;;;;;8.23;3.10;;;23.50;99.90;;;;;;5037582;28;20105;-87
2022/07/29 11:32:42;;;;;;;6.18;2.92;;;23.90;99.90;;;;;;5047365;28;20038;-88
2022/07/29 11:35:23;;;;;;;6.13;3.28;;;24.00;99.90;;;;;;5050840;28;20412;-88
2022/07/29 11:38:26;;;;;;;9.25;3.05;;;24.20;99.90;;;;;;5029730;28;20353;-89
2022/07/29 11:41:17;;;;;;;4.63;2.83;;;24.20;99.90;;;;;;4971688;28;20896;-87
2022/07/29 11:43:51;;;;;;;4.13;2.75;;;24.60;99.90;;;;;;5027772;28;20070;-87
2022/07/29 11:46:37;;;;;;;5.55;2.95;;;24.60;99.90;;;;;;5038914;28;20133;-88
2022/07/29 11:49:04;;;;;;;6.95;2.40;;;24.90;99.90;;;;;;5031643;28;20452;-89
2022/07/29 11:51:30;;;;;;;12.35;2.95;;;25.00;99.90;;;;;;5050447;28;20091;-87
2022/07/29 11:53:58;;;;;;;6.00;2.50;;;24.50;99.90;;;;;;5059232;28;20467;-86
2022/07/29 11:56:26;;;;;;;6.82;3.35;;;24.80;99.90;;;;;;5050112;28;20043;-87
2022/07/29 11:59:05;;;;;;;5.10;2.50;;;24.70;99.90;;;;;;5050448;28;20268;-88
2022/07/29 12:01:31;;;;;;;6.18;2.85;;;24.60;99.90;;;;;;5068629;28;20310;-89
2022/07/29 12:04:05;;;;;;;5.13;2.72;;;24.70;99.90;;;;;;5041510;28;20475;-88
2022/07/29 12:06:30;;;;;;;6.65;2.78;;;25.10;99.90;;;;;;5060648;28;20938;-88
2022/07/29 12:08:56;;;;;;;3.90;2.33;;;24.70;99.90;;;;;;5058633;28;20050;-88
2022/07/29 12:11:22;;;;;;;8.48;2.58;;;25.00;99.90;;;;;;5049398;28;20052;-90
2022/07/29 12:13:49;;;;;;;5.00;2.80;;;25.20;99.90;;;;;;5056343;28;20039;-89
2022/07/29 12:16:15;;;;;;;5.63;2.55;;;25.10;99.20;;;;;;5033568;28;20543;-88
2022/07/29 12:18:41;;;;;;;6.00;2.95;;;25.10;99.90;;;;;;5028701;28;20365;-89
2022/07/29 12:21:08;;;;;;;6.88;2.35;;;25.20;99.90;;;;;;5072992;28;20494;-88
2022/07/29 12:23:34;;;;;;;6.78;2.55;;;25.50;99.90;;;;;;5045015;28;20040;-88
2022/07/29 12:26:00;;;;;;;5.53;2.22;;;25.20;97.40;;;;;;5056647;28;20055;-89
2022/07/29 12:28:26;;;;;;;6.25;2.50;;;25.10;94.40;;;;;;5057929;28;20040;-89
2022/07/29 12:30:55;;;;;;;5.88;2.42;;;25.70;96.10;;;;;;5029511;28;20036;-89
2022/07/29 12:33:22;;;;;;;5.57;2.53;;;25.80;94.60;;;;;;5033067;28;20047;-88
2022/07/29 12:36:09;;;;;;;5.20;2.47;;;25.90;82.70;;;;;;5077567;28;20099;-88
2022/07/29 12:38:37;;;;;;;6.22;2.45;;;26.10;91.30;;;;;;5039266;28;20134;-86
2022/07/29 12:41:03;;;;;;;4.03;2.28;;;26.00;84.10;;;;;;5043475;28;20139;-88
2022/07/29 12:43:29;;;;;;;5.47;2.33;;;25.60;67.80;;;;;;5021190;28;20040;-89
2022/07/29 12:45:59;;;;;;;6.22;2.75;;;25.40;63.80;;;;;;5043929;28;20053;-87
2022/07/29 12:48:39;;;;;;;6.30;2.60;;;25.70;62.10;;;;;;5027733;28;20043;-88
2022/07/29 12:51:09;;;;;;;7.57;2.55;;;26.50;74.20;;;;;;5049784;28;20068;-87
2022/07/29 12:53:36;;;;;;;20.20;2.47;;;27.10;70.60;;;;;;5052420;28;20032;-88
2022/07/29 12:56:03;;;;;;;4.55;2.00;;;26.60;60.00;;;;;;5050516;28;20048;-88
2022/07/29 12:58:41;;;;;;;6.38;2.45;;;26.70;67.90;;;;;;5066493;28;20054;-88
2022/07/29 13:01:14;;;;;;;8.35;2.53;;;26.40;60.40;;;;;;5026135;28;20059;-89
2022/07/29 13:03:53;;;;;;;3.92;2.00;;;26.50;51.90;;;;;;5029983;28;20231;-88
2022/07/29 13:06:38;;;;;;;5.38;2.35;;;27.40;60.40;;;;;;5044835;28;20464;-89